Monster, Netherlands
Current Conditions -  °F | °C
As of 4:55 PM on Thursday 30 Oct 2014 (Local Time) from EHRD Reporting Station
Clear Clear  
Wind Chill: 61°   Ceiling: Unl
Heat Index: 61°   Visibility: 6mi
Dew Point: 55°   Wind: 9mph
Humidity: 82%   Direction: 180°S
Pressure: 30.12"   Gusts: NA
Location:  52.03°N, 4.18°E
Report Text: EHRD 301555Z AUTO 18008KT 150V250 9999 NSC 16/13 Q1020 NOSIG
Loading
Personal Weather Stations






























Interactive Weather Map
Tropical Storm Tracking
New forecast layout! Learn more

10-Day Weather Forecast

Advertisements
Track Severe Weather on mobile